createdAt,value
2023-04-29T00:01:20.985Z,16.29
2023-04-29T00:03:47.832Z,16.23
2023-04-29T00:06:15.445Z,16.19
2023-04-29T00:08:42.426Z,16.19
2023-04-29T00:11:11.509Z,16.18
2023-04-29T00:13:40.949Z,16.16
2023-04-29T00:16:08.837Z,16.18
2023-04-29T00:18:36.549Z,16.22
2023-04-29T00:21:06.047Z,16.23
2023-04-29T00:23:33.762Z,16.25
2023-04-29T00:26:00.974Z,16.24
2023-04-29T00:28:27.930Z,16.26
2023-04-29T00:30:56.106Z,16.21
2023-04-29T00:33:23.117Z,16.13
2023-04-29T00:35:50.416Z,16.18
2023-04-29T00:38:17.306Z,16.18
2023-04-29T00:40:44.781Z,16.16
2023-04-29T00:43:11.608Z,16.12
2023-04-29T00:45:38.638Z,16.12
2023-04-29T00:48:05.528Z,16.12
2023-04-29T00:50:32.783Z,16.09
2023-04-29T00:53:00.224Z,16.10
2023-04-29T00:55:27.292Z,16.05
2023-04-29T00:57:54.063Z,16.14
2023-04-29T01:00:21.294Z,16.12
2023-04-29T01:02:48.240Z,16.10
2023-04-29T01:05:15.500Z,16.11
2023-04-29T01:08:07.006Z,16.08
2023-04-29T01:10:41.746Z,16.05
2023-04-29T01:13:14.398Z,16.02
2023-04-29T01:15:48.157Z,16.01
2023-04-29T01:18:27.008Z,16.06
2023-04-29T01:20:54.019Z,16.02
2023-04-29T01:23:20.839Z,15.89
2023-04-29T01:25:49.122Z,15.93
2023-04-29T01:28:35.858Z,15.91
2023-04-29T01:31:25.975Z,15.86
2023-04-29T01:34:09.604Z,15.88
2023-04-29T01:37:01.535Z,15.89
2023-04-29T01:39:47.087Z,15.89
2023-04-29T01:42:25.252Z,15.86
2023-04-29T01:44:52.230Z,15.87
2023-04-29T01:47:19.194Z,15.83
2023-04-29T01:49:46.934Z,15.77
2023-04-29T01:52:13.944Z,15.78
2023-04-29T01:54:40.746Z,15.74
2023-04-29T01:57:07.852Z,15.69
2023-04-29T01:59:34.642Z,15.68
2023-04-29T02:02:01.715Z,15.71
2023-04-29T02:04:28.758Z,15.61
2023-04-29T02:06:55.866Z,15.58
2023-04-29T02:09:22.545Z,15.58
2023-04-29T02:11:49.520Z,15.56
2023-04-29T02:14:16.238Z,15.57
2023-04-29T02:16:46.497Z,15.56
2023-04-29T02:19:13.356Z,15.57
2023-04-29T02:21:40.347Z,15.50
2023-04-29T02:24:07.183Z,15.48
2023-04-29T02:26:34.533Z,15.43
2023-04-29T02:29:01.655Z,15.46
2023-04-29T02:31:29.351Z,15.46
2023-04-29T02:33:56.148Z,15.43
2023-04-29T02:36:23.993Z,15.42
2023-04-29T02:38:50.882Z,15.41
2023-04-29T02:41:18.263Z,15.38
2023-04-29T02:43:45.157Z,15.36
2023-04-29T02:46:12.314Z,15.43
2023-04-29T02:48:39.134Z,15.35
2023-04-29T02:51:06.677Z,15.37
2023-04-29T02:53:33.480Z,15.30
2023-04-29T02:56:00.491Z,15.29
2023-04-29T02:58:27.350Z,15.28
2023-04-29T03:00:54.400Z,15.29
2023-04-29T03:03:21.345Z,15.27
2023-04-29T03:05:48.568Z,15.27
2023-04-29T03:08:15.802Z,15.22
2023-04-29T03:10:43.085Z,15.23
2023-04-29T03:13:09.896Z,15.20
2023-04-29T03:15:37.027Z,15.24
2023-04-29T03:18:05.011Z,15.23
2023-04-29T03:20:32.736Z,15.23
2023-04-29T03:23:00.964Z,15.15
2023-04-29T03:25:28.676Z,15.17
2023-04-29T03:27:55.414Z,15.18
2023-04-29T03:30:22.436Z,15.18
2023-04-29T03:32:49.250Z,15.18
2023-04-29T03:35:16.306Z,15.14
2023-04-29T03:37:44.709Z,15.12
2023-04-29T03:40:12.815Z,15.12
2023-04-29T03:42:39.624Z,15.09
2023-04-29T03:45:07.235Z,15.07
2023-04-29T03:47:34.228Z,15.07
2023-04-29T03:50:01.322Z,15.01
2023-04-29T03:52:28.405Z,15.05
2023-04-29T03:54:55.367Z,15.07
2023-04-29T03:57:22.156Z,15.06
2023-04-29T03:59:50.641Z,15.02
2023-04-29T04:02:17.986Z,15.02
2023-04-29T04:04:45.629Z,15.07
2023-04-29T04:07:12.542Z,15.04
2023-04-29T04:09:39.649Z,14.98
2023-04-29T04:12:06.565Z,15.06
2023-04-29T04:14:34.484Z,15.00
2023-04-29T04:17:01.572Z,14.99
2023-04-29T04:19:30.575Z,14.98
2023-04-29T04:21:57.360Z,14.99
2023-04-29T04:24:24.411Z,14.99
2023-04-29T04:26:51.135Z,14.94
2023-04-29T04:29:18.220Z,14.98
2023-04-29T04:31:46.997Z,14.98
2023-04-29T04:34:14.385Z,14.97
2023-04-29T04:36:41.598Z,14.95
2023-04-29T04:39:08.620Z,14.93
2023-04-29T04:41:35.675Z,14.92
2023-04-29T04:44:03.167Z,14.92
2023-04-29T04:46:29.940Z,14.90
2023-04-29T04:48:56.938Z,14.93
2023-04-29T04:51:23.703Z,14.92
2023-04-29T04:53:50.745Z,14.94
2023-04-29T04:56:17.436Z,14.89
2023-04-29T04:58:44.409Z,14.92
2023-04-29T05:01:11.459Z,14.94
2023-04-29T05:03:38.778Z,14.91
2023-04-29T05:06:05.807Z,14.90
2023-04-29T05:08:32.814Z,14.93
2023-04-29T05:10:59.613Z,14.89
2023-04-29T05:13:26.839Z,14.93
2023-04-29T05:15:53.875Z,14.94
2023-04-29T05:18:21.058Z,14.88
2023-04-29T05:20:47.752Z,14.94
2023-04-29T05:23:14.952Z,14.91
2023-04-29T05:25:42.526Z,14.90
2023-04-29T05:28:09.545Z,14.91
2023-04-29T05:30:37.809Z,14.95
2023-04-29T05:33:05.096Z,14.92
2023-04-29T05:35:32.212Z,14.88
2023-04-29T05:37:59.238Z,14.92
2023-04-29T05:40:26.128Z,14.90
2023-04-29T05:42:53.247Z,14.89
2023-04-29T05:45:19.932Z,14.90
2023-04-29T05:47:47.050Z,14.91
2023-04-29T05:50:13.746Z,14.93
2023-04-29T05:52:40.831Z,14.93
2023-04-29T05:55:07.789Z,14.93
2023-04-29T05:57:34.806Z,14.91
2023-04-29T06:00:01.814Z,14.93
2023-04-29T06:02:28.971Z,14.90
2023-04-29T06:04:56.027Z,14.96
2023-04-29T06:07:23.448Z,14.97
2023-04-29T06:09:50.665Z,14.98
2023-04-29T06:12:17.851Z,14.96
2023-04-29T06:14:44.667Z,14.94
2023-04-29T06:17:12.413Z,14.96
2023-04-29T06:19:39.085Z,14.99
2023-04-29T06:22:06.102Z,14.98
2023-04-29T06:24:32.832Z,15.02
2023-04-29T06:26:59.849Z,15.04
2023-04-29T06:29:26.807Z,15.12
2023-04-29T06:31:54.354Z,15.09
2023-04-29T06:34:21.169Z,15.12
2023-04-29T06:36:48.224Z,15.17
2023-04-29T06:39:15.171Z,15.23
2023-04-29T06:41:42.166Z,15.25
2023-04-29T06:44:09.157Z,15.27
2023-04-29T06:46:36.238Z,15.33
2023-04-29T06:49:02.987Z,15.36
2023-04-29T06:51:30.064Z,15.54
2023-04-29T06:53:56.834Z,15.63
2023-04-29T06:56:23.940Z,15.59
2023-04-29T06:58:50.723Z,15.70
2023-04-29T07:01:17.921Z,15.74
2023-04-29T07:03:45.340Z,15.77
2023-04-29T07:06:12.658Z,15.82
2023-04-29T07:08:39.496Z,15.88
2023-04-29T07:11:06.497Z,15.92
2023-04-29T07:13:33.405Z,15.92
2023-04-29T07:16:00.482Z,15.99
2023-04-29T07:18:27.181Z,16.03
2023-04-29T07:20:55.822Z,16.07
2023-04-29T07:23:22.595Z,16.10
2023-04-29T07:25:49.626Z,16.14
2023-04-29T07:28:16.421Z,16.17
2023-04-29T07:30:43.434Z,16.22
2023-04-29T07:33:10.268Z,16.25
2023-04-29T07:35:37.386Z,16.27
2023-04-29T07:38:04.178Z,16.35
2023-04-29T07:40:31.231Z,16.42
2023-04-29T07:42:58.021Z,16.47
2023-04-29T07:45:25.060Z,16.56
2023-04-29T07:47:52.049Z,16.63
2023-04-29T07:50:19.276Z,16.67
2023-04-29T07:52:45.971Z,16.77
2023-04-29T07:55:13.074Z,16.83
2023-04-29T07:57:39.882Z,16.91
2023-04-29T08:00:07.654Z,17.03
2023-04-29T08:02:34.615Z,17.06
2023-04-29T08:05:03.238Z,17.15
2023-04-29T08:07:30.433Z,17.26
2023-04-29T08:09:57.610Z,17.30
2023-04-29T08:12:24.364Z,17.39
2023-04-29T08:14:51.506Z,17.51
2023-04-29T08:17:18.336Z,17.58
2023-04-29T08:19:45.933Z,17.62
2023-04-29T08:22:14.215Z,17.64
2023-04-29T08:24:42.836Z,17.73
2023-04-29T08:27:09.597Z,17.77
2023-04-29T08:29:36.717Z,17.84
2023-04-29T08:32:03.514Z,17.85
2023-04-29T08:34:31.861Z,17.93
2023-04-29T08:36:58.611Z,17.97
2023-04-29T08:39:26.116Z,18.03
2023-04-29T08:41:54.126Z,18.07
2023-04-29T08:44:21.634Z,18.12
2023-04-29T08:46:48.399Z,18.15
2023-04-29T08:49:15.408Z,18.19
2023-04-29T08:51:42.171Z,18.23
2023-04-29T08:54:09.487Z,18.26
2023-04-29T08:56:36.307Z,18.28
2023-04-29T08:59:04.327Z,18.26
2023-04-29T09:01:31.188Z,18.31
2023-04-29T09:04:31.180Z,18.33
2023-04-29T09:06:58.344Z,18.31
2023-04-29T09:09:25.483Z,18.33
2023-04-29T09:11:52.460Z,18.38
2023-04-29T09:14:19.539Z,18.40
2023-04-29T09:16:47.184Z,18.39
2023-04-29T09:19:35.269Z,18.40
2023-04-29T09:22:02.983Z,18.42
2023-04-29T09:24:30.945Z,18.40
2023-04-29T09:26:58.790Z,18.41
2023-04-29T09:29:25.941Z,18.40
2023-04-29T09:31:57.707Z,18.41
2023-04-29T09:34:37.379Z,18.36
2023-04-29T09:37:04.171Z,18.40
2023-04-29T09:39:38.865Z,18.42
2023-04-29T09:42:06.351Z,18.36
2023-04-29T09:44:35.992Z,18.40
2023-04-29T09:47:07.381Z,18.38
2023-04-29T09:49:40.832Z,18.41
2023-04-29T09:52:08.875Z,18.35
2023-04-29T09:54:36.652Z,18.31
2023-04-29T09:57:06.102Z,18.38
2023-04-29T09:59:37.534Z,18.39
2023-04-29T10:02:17.814Z,18.44
2023-04-29T10:04:46.563Z,18.41
2023-04-29T10:07:17.144Z,18.40
2023-04-29T10:09:45.201Z,18.39
2023-04-29T10:12:11.957Z,18.35
2023-04-29T10:14:50.389Z,18.36
2023-04-29T10:17:20.187Z,18.35
2023-04-29T10:19:56.023Z,18.40
2023-04-29T10:22:34.589Z,18.44
2023-04-29T10:25:02.277Z,18.38
2023-04-29T10:27:29.606Z,18.46
2023-04-29T10:29:56.998Z,18.43
2023-04-29T10:32:23.905Z,18.48
2023-04-29T10:34:51.769Z,18.42
2023-04-29T10:37:18.578Z,18.44
2023-04-29T10:39:53.486Z,18.39
2023-04-29T10:42:44.559Z,18.39
2023-04-29T10:45:24.660Z,18.41
2023-04-29T10:48:08.450Z,18.35
2023-04-29T10:50:49.068Z,18.35
2023-04-29T10:53:19.380Z,18.41
2023-04-29T10:55:59.931Z,18.44
2023-04-29T10:58:45.633Z,18.43
2023-04-29T11:01:17.007Z,18.47
2023-04-29T11:03:55.870Z,18.50
2023-04-29T11:06:25.206Z,18.49
2023-04-29T11:09:05.022Z,18.60
2023-04-29T11:12:04.191Z,18.71
2023-04-29T11:14:36.972Z,18.69
2023-04-29T11:17:05.774Z,18.80
2023-04-29T11:19:33.654Z,18.85
2023-04-29T11:22:10.332Z,18.98
2023-04-29T11:24:37.143Z,19.06
2023-04-29T11:27:07.329Z,19.12
2023-04-29T11:29:34.478Z,19.21
2023-04-29T11:32:04.594Z,19.29
2023-04-29T11:34:31.651Z,19.31
2023-04-29T11:36:58.410Z,19.41
2023-04-29T11:39:25.425Z,19.46
2023-04-29T11:41:52.832Z,19.59
2023-04-29T11:44:23.250Z,19.68
2023-04-29T11:46:50.022Z,19.80
2023-04-29T11:49:17.003Z,19.81
2023-04-29T11:51:43.746Z,19.85
2023-04-29T11:54:10.821Z,20.00
2023-04-29T11:56:38.303Z,20.07
2023-04-29T11:59:08.210Z,20.12
2023-04-29T12:01:36.144Z,20.19
2023-04-29T12:04:05.091Z,20.27
2023-04-29T12:06:32.161Z,20.34
2023-04-29T12:09:00.596Z,20.45
2023-04-29T12:11:28.249Z,20.46
2023-04-29T12:13:55.469Z,20.55
2023-04-29T12:16:24.149Z,20.64
2023-04-29T12:18:52.634Z,20.71
2023-04-29T12:21:19.346Z,20.77
2023-04-29T12:23:46.617Z,20.84
2023-04-29T12:26:13.873Z,20.94
2023-04-29T12:28:42.229Z,20.98
2023-04-29T12:31:09.746Z,20.98
2023-04-29T12:33:37.470Z,21.07
2023-04-29T12:36:04.500Z,21.11
2023-04-29T12:38:31.598Z,21.21
2023-04-29T12:40:59.318Z,21.26
2023-04-29T12:43:30.452Z,21.34
2023-04-29T12:46:10.653Z,21.33
2023-04-29T12:48:43.973Z,21.42
2023-04-29T12:51:11.665Z,21.38
2023-04-29T12:53:39.142Z,21.44
2023-04-29T12:56:06.579Z,21.45
2023-04-29T12:58:34.884Z,21.52
2023-04-29T13:01:01.803Z,21.54
2023-04-29T13:03:29.107Z,21.54
2023-04-29T13:05:56.072Z,21.58
2023-04-29T13:08:23.229Z,21.57
2023-04-29T13:10:50.104Z,21.60
2023-04-29T13:13:17.213Z,21.62
2023-04-29T13:15:44.189Z,21.63
2023-04-29T13:18:11.382Z,21.65
2023-04-29T13:20:41.451Z,21.64
2023-04-29T13:23:09.680Z,21.60
2023-04-29T13:25:36.517Z,21.62
2023-04-29T13:28:05.523Z,21.61
2023-04-29T13:30:33.202Z,21.62
2023-04-29T13:33:08.356Z,21.64
2023-04-29T13:35:40.255Z,21.65
2023-04-29T13:38:08.425Z,21.66
2023-04-29T13:40:39.231Z,21.65
2023-04-29T13:43:09.812Z,21.66
2023-04-29T13:45:39.914Z,21.67
2023-04-29T13:48:20.814Z,21.66
2023-04-29T14:01:05.853Z,21.58
2023-04-29T14:03:39.699Z,21.60
2023-04-29T14:06:07.350Z,21.61
2023-04-29T14:08:34.472Z,21.57
2023-04-29T14:11:01.279Z,21.58
2023-04-29T14:13:29.352Z,21.56
2023-04-29T14:15:56.762Z,21.55
2023-04-29T14:18:23.920Z,21.58
2023-04-29T14:20:50.610Z,21.57
2023-04-29T14:23:17.614Z,21.54
2023-04-29T14:25:44.384Z,21.52
2023-04-29T14:28:11.449Z,21.47
2023-04-29T14:30:38.165Z,21.42
2023-04-29T14:33:05.524Z,21.45
2023-04-29T14:35:32.405Z,21.47
2023-04-29T14:37:59.429Z,21.44
2023-04-29T14:40:26.283Z,21.38
2023-04-29T14:42:53.361Z,21.39
2023-04-29T14:45:20.121Z,21.36
2023-04-29T14:47:47.303Z,21.36
2023-04-29T14:50:14.109Z,21.36
2023-04-29T14:52:41.167Z,21.36
2023-04-29T14:55:09.124Z,21.31
2023-04-29T14:57:36.171Z,21.20
2023-04-29T15:00:03.828Z,21.16
2023-04-29T15:02:31.117Z,21.15
2023-04-29T15:04:57.904Z,21.15
2023-04-29T15:07:24.920Z,21.04
2023-04-29T15:09:51.715Z,21.01
2023-04-29T15:12:20.001Z,20.97
2023-04-29T15:14:47.611Z,20.99
2023-04-29T15:17:14.646Z,21.05
2023-04-29T15:19:41.461Z,21.02
2023-04-29T15:22:08.494Z,21.01
2023-04-29T15:24:35.294Z,20.95
2023-04-29T15:27:03.210Z,20.93
2023-04-29T15:29:32.518Z,20.89
2023-04-29T15:31:59.610Z,20.84
2023-04-29T15:34:26.455Z,20.83
2023-04-29T15:36:53.586Z,20.78
2023-04-29T15:39:20.367Z,20.74
2023-04-29T15:41:48.307Z,20.71
2023-04-29T15:44:15.136Z,20.56
2023-04-29T15:46:42.256Z,20.59
2023-04-29T15:49:08.973Z,20.55
2023-04-29T15:51:35.972Z,20.46
2023-04-29T15:54:02.758Z,20.41
2023-04-29T15:56:30.535Z,20.38
2023-04-29T15:58:57.235Z,20.38
2023-04-29T16:01:24.357Z,20.40
2023-04-29T16:03:51.356Z,20.38
2023-04-29T16:06:18.472Z,20.30
2023-04-29T16:08:45.866Z,20.27
2023-04-29T16:11:12.916Z,20.25
2023-04-29T16:13:39.600Z,20.25
2023-04-29T16:16:07.036Z,20.24
2023-04-29T16:18:33.936Z,20.23
2023-04-29T16:21:01.245Z,20.16
2023-04-29T16:23:28.508Z,20.15
2023-04-29T16:25:55.936Z,20.12
2023-04-29T16:28:22.952Z,20.09
2023-04-29T16:30:50.164Z,20.06
2023-04-29T16:33:16.889Z,20.04
2023-04-29T16:35:43.895Z,20.05
2023-04-29T16:38:10.681Z,20.01
2023-04-29T16:40:37.809Z,20.00
2023-04-29T16:43:04.589Z,19.97
2023-04-29T16:45:31.650Z,19.97
2023-04-29T16:47:58.580Z,19.94
2023-04-29T16:50:27.000Z,19.90
2023-04-29T16:52:53.771Z,19.85
2023-04-29T16:55:20.828Z,19.85
2023-04-29T16:57:47.593Z,19.81
2023-04-29T17:00:14.944Z,19.83
2023-04-29T17:02:43.049Z,19.78
2023-04-29T17:05:11.047Z,19.75
2023-04-29T17:07:38.008Z,19.69
2023-04-29T17:10:06.157Z,19.69
2023-04-29T17:12:33.419Z,19.68
2023-04-29T17:15:00.640Z,19.67
2023-04-29T17:17:27.442Z,19.66
2023-04-29T17:19:55.669Z,19.63
2023-04-29T17:22:22.769Z,19.62
2023-04-29T17:24:50.879Z,19.54
2023-04-29T17:27:17.936Z,19.55
2023-04-29T17:29:45.260Z,19.51
2023-04-29T17:32:14.939Z,19.50
2023-04-29T17:34:42.103Z,19.52
2023-04-29T17:37:09.314Z,19.49
2023-04-29T17:39:36.374Z,19.45
2023-04-29T17:42:03.195Z,19.42
2023-04-29T17:44:30.601Z,19.43
2023-04-29T17:46:57.411Z,19.39
2023-04-29T17:49:25.004Z,19.40
2023-04-29T17:51:52.504Z,19.29
2023-04-29T17:54:19.637Z,19.27
2023-04-29T17:56:46.531Z,19.26
2023-04-29T17:59:13.628Z,19.25
2023-04-29T18:01:40.746Z,19.21
2023-04-29T18:04:08.097Z,19.19
2023-04-29T18:06:35.065Z,19.16
2023-04-29T18:09:02.254Z,19.18
2023-04-29T18:11:29.376Z,19.09
2023-04-29T18:13:56.496Z,19.09
2023-04-29T18:16:23.371Z,19.04
2023-04-29T18:18:56.647Z,19.02
2023-04-29T18:21:27.628Z,19.01
2023-04-29T18:23:55.289Z,18.99
2023-04-29T18:26:22.335Z,18.99
2023-04-29T18:28:49.649Z,18.96
2023-04-29T18:31:16.710Z,18.89
2023-04-29T18:33:44.088Z,18.90
2023-04-29T18:36:11.162Z,18.86
2023-04-29T18:38:38.287Z,18.80
2023-04-29T18:41:06.683Z,18.81
2023-04-29T18:43:33.920Z,18.79
2023-04-29T18:46:00.887Z,18.77
2023-04-29T18:48:30.378Z,18.72
2023-04-29T18:50:59.954Z,18.69
2023-04-29T18:53:27.073Z,18.65
2023-04-29T18:55:53.910Z,18.67
2023-04-29T18:58:21.535Z,18.67
2023-04-29T19:00:48.681Z,18.56
2023-04-29T19:03:17.601Z,18.60
2023-04-29T19:05:45.390Z,18.58
2023-04-29T19:08:16.303Z,18.53
2023-04-29T19:10:44.218Z,18.51
2023-04-29T19:13:11.609Z,18.48
2023-04-29T19:15:39.086Z,18.47
2023-04-29T19:18:06.359Z,18.48
2023-04-29T19:20:33.258Z,18.39
2023-04-29T19:23:00.922Z,18.32
2023-04-29T19:25:27.849Z,18.25
2023-04-29T19:27:55.050Z,18.25
2023-04-29T19:30:21.988Z,18.24
2023-04-29T19:32:49.311Z,18.21
2023-04-29T19:35:16.193Z,18.17
2023-04-29T19:37:44.256Z,18.15
2023-04-29T19:40:11.438Z,18.17
2023-04-29T19:42:39.310Z,18.10
2023-04-29T19:45:07.783Z,18.10
2023-04-29T19:47:35.211Z,18.10
2023-04-29T19:50:02.341Z,18.04
2023-04-29T19:52:29.950Z,18.02
2023-04-29T19:54:57.125Z,18.03
2023-04-29T19:57:24.312Z,17.99
2023-04-29T19:59:51.278Z,17.97
2023-04-29T20:02:19.238Z,17.99
2023-04-29T20:04:46.220Z,17.97
2023-04-29T20:07:13.261Z,17.96
2023-04-29T20:09:40.305Z,17.92
2023-04-29T20:12:07.388Z,17.89
2023-04-29T20:14:34.372Z,17.89
2023-04-29T20:17:01.684Z,17.88
2023-04-29T20:19:28.962Z,17.87
2023-04-29T20:21:58.893Z,17.87
2023-04-29T20:24:25.771Z,17.86
2023-04-29T20:26:52.855Z,17.84
2023-04-29T20:29:19.641Z,17.81
2023-04-29T20:31:46.876Z,17.80
2023-04-29T20:34:13.718Z,17.77
2023-04-29T20:36:40.892Z,17.71
2023-04-29T20:39:09.344Z,17.70
2023-04-29T20:41:36.613Z,17.65
2023-04-29T20:44:03.650Z,17.68
2023-04-29T20:46:30.827Z,17.70
2023-04-29T20:48:57.746Z,17.62
2023-04-29T20:51:25.019Z,17.60
2023-04-29T20:53:52.055Z,17.59
2023-04-29T20:56:19.251Z,17.56
2023-04-29T20:58:46.107Z,17.57
2023-04-29T21:01:13.331Z,17.51
2023-04-29T21:03:40.666Z,17.54
2023-04-29T21:06:07.897Z,17.51
2023-04-29T21:08:34.646Z,17.50
2023-04-29T21:11:01.909Z,17.49
2023-04-29T21:13:28.689Z,17.49
2023-04-29T21:15:55.811Z,17.48
2023-04-29T21:18:22.740Z,17.44
2023-04-29T21:20:49.882Z,17.40
2023-04-29T21:23:16.725Z,17.40
2023-04-29T21:25:43.949Z,17.42
2023-04-29T21:28:10.890Z,17.41
2023-04-29T21:30:37.912Z,17.36
2023-04-29T21:33:05.006Z,17.34
2023-04-29T21:35:32.185Z,17.38
2023-04-29T21:37:59.016Z,17.35
2023-04-29T21:40:26.697Z,17.33
2023-04-29T21:42:55.374Z,17.28
2023-04-29T21:45:22.416Z,17.27
2023-04-29T21:47:49.170Z,17.26
2023-04-29T21:50:16.251Z,17.27
2023-04-29T21:52:43.043Z,17.25
2023-04-29T21:55:10.215Z,17.19
2023-04-29T21:57:44.468Z,17.16
2023-04-29T22:00:28.191Z,17.11
2023-04-29T22:02:54.932Z,17.12
2023-04-29T22:05:22.009Z,17.15
2023-04-29T22:07:48.793Z,17.14
2023-04-29T22:10:16.023Z,17.12
2023-04-29T22:12:42.786Z,17.11
2023-04-29T22:15:21.041Z,17.08
2023-04-29T22:17:54.877Z,17.07
2023-04-29T22:20:21.879Z,17.05
2023-04-29T22:22:48.655Z,17.01
2023-04-29T22:25:15.726Z,17.03
2023-04-29T22:27:42.444Z,17.01
2023-04-29T22:30:09.880Z,17.00
2023-04-29T22:32:36.651Z,16.94
2023-04-29T22:35:04.152Z,16.94
2023-04-29T22:37:30.853Z,16.83
2023-04-29T22:39:57.854Z,16.86
2023-04-29T22:42:24.676Z,16.86
2023-04-29T22:44:51.704Z,16.86
2023-04-29T22:47:18.418Z,16.88
2023-04-29T22:49:45.463Z,16.82
2023-04-29T22:52:12.243Z,16.79
2023-04-29T22:54:40.418Z,16.78
2023-04-29T22:57:07.511Z,16.68
2023-04-29T22:59:34.497Z,16.70
2023-04-29T23:02:01.246Z,16.73
2023-04-29T23:04:28.504Z,16.73
2023-04-29T23:06:55.189Z,16.72
2023-04-29T23:09:22.205Z,16.74
2023-04-29T23:11:49.029Z,16.71
2023-04-29T23:14:16.050Z,16.69
2023-04-29T23:16:42.750Z,16.71
2023-04-29T23:19:09.773Z,16.66
2023-04-29T23:21:36.463Z,16.67
2023-04-29T23:24:03.852Z,16.65
2023-04-29T23:26:30.679Z,16.61
2023-04-29T23:28:57.761Z,16.58
2023-04-29T23:31:24.655Z,16.60
2023-04-29T23:33:51.710Z,16.57
2023-04-29T23:36:18.456Z,16.58
2023-04-29T23:38:45.501Z,16.50
2023-04-29T23:41:12.190Z,16.46
2023-04-29T23:43:39.709Z,16.46
2023-04-29T23:46:06.591Z,16.45
2023-04-29T23:48:33.663Z,16.51
2023-04-29T23:51:00.482Z,16.45
2023-04-29T23:53:27.544Z,16.47
2023-04-29T23:55:54.267Z,16.46
2023-04-29T23:58:21.260Z,16.43
